Time;durP1;ratioP1;P1;durP2;ratioP2;P2;SDS_P1;SDS_P2;PMS_P1;PMS_P2;Temp;Humidity;BMP_temperature;BMP_pressure;BME280_temperature;BME280_humidity;BME280_pressure;Samples;Min_cycle;Max_cycle;Signal;HPM_P1;HPM_P2
2021/10/03 00:00:58;;;;;;;;;;;;;;;15.76;100.00;99348.16;4927185;28;20866;-69
2021/10/03 00:03:27;;;;;;;3.70;2.47;;;;;;;15.71;100.00;99354.84;4918105;28;19961;-69
2021/10/03 00:05:59;;;;;;;2.85;2.15;;;;;;;15.75;100.00;99359.00;4927796;28;20067;-68
2021/10/03 00:08:28;;;;;;;5.38;2.20;;;;;;;15.71;100.00;99353.00;4927809;28;20361;-69
2021/10/03 00:10:56;;;;;;;3.88;2.30;;;;;;;15.73;100.00;99348.38;4928158;28;20499;-69
2021/10/03 00:13:25;;;;;;;5.47;2.67;;;;;;;15.68;100.00;99353.25;4925830;28;20504;-66
2021/10/03 00:15:54;;;;;;;6.05;2.72;;;;;;;15.71;100.00;99349.47;4929302;28;20418;-67
2021/10/03 00:18:23;;;;;;;4.40;2.47;;;;;;;15.73;100.00;99336.75;4925752;28;20055;-67
2021/10/03 00:20:51;;;;;;;4.65;2.67;;;;;;;15.71;100.00;99349.47;4928362;28;20473;-67
2021/10/03 00:23:21;;;;;;;6.35;2.90;;;;;;;15.70;100.00;99343.25;4922025;28;20274;-67
2021/10/03 00:26:13;;;;;;;6.22;2.85;;;;;;;15.67;100.00;99348.88;4929415;28;20117;-67
2021/10/03 00:28:41;;;;;;;6.03;3.80;;;;;;;15.64;100.00;99357.16;4928557;28;20081;-67
2021/10/03 00:31:09;;;;;;;5.72;3.30;;;;;;;15.62;100.00;99351.91;4926418;28;20550;-67
2021/10/03 00:33:38;;;;;;;5.45;3.45;;;;;;;15.66;100.00;99366.84;4931058;28;20238;-67
2021/10/03 00:36:06;;;;;;;7.32;3.03;;;;;;;15.67;100.00;99356.94;4926908;28;20134;-67
2021/10/03 00:38:37;;;;;;;5.20;2.80;;;;;;;15.67;100.00;99362.31;4931290;28;20043;-67
2021/10/03 00:41:05;;;;;;;4.70;2.47;;;;;;;15.68;100.00;99366.69;4928999;28;20055;-67
2021/10/03 00:43:33;;;;;;;5.95;2.90;;;;;;;15.65;100.00;99365.09;4926907;28;20051;-67
2021/10/03 00:46:26;;;;;;;6.07;2.55;;;;;;;15.66;100.00;99360.56;4930638;28;20058;-67
2021/10/03 00:48:54;;;;;;;3.35;2.25;;;;;;;15.60;100.00;99366.44;4929703;28;20059;-67
2021/10/03 00:51:22;;;;;;;4.05;2.50;;;;;;;15.63;100.00;99379.63;4928402;28;20134;-68
2021/10/03 00:53:52;;;;;;;4.68;2.25;;;;;;;15.61;100.00;99370.81;4923429;28;20141;-67
2021/10/03 00:56:20;;;;;;;5.97;2.20;;;;;;;15.59;100.00;99379.00;4926524;28;20055;-67
2021/10/03 00:58:47;;;;;;;4.00;2.28;;;;;;;15.57;100.00;99377.44;4931758;28;20146;-67
2021/10/03 01:01:16;;;;;;;6.65;2.13;;;;;;;15.59;100.00;99391.59;4927847;28;20582;-67
2021/10/03 01:04:08;;;;;;;5.00;2.33;;;;;;;15.58;100.00;99388.06;4927734;28;20176;-68
2021/10/03 01:06:36;;;;;;;4.00;2.17;;;;;;;15.55;100.00;99392.81;4927714;28;20135;-68
2021/10/03 01:09:05;;;;;;;4.97;2.60;;;;;;;15.53;100.00;99395.63;4928579;28;20126;-68
2021/10/03 01:11:33;;;;;;;3.83;2.22;;;;;;;15.49;100.00;99399.50;4925428;28;20043;-68
2021/10/03 01:14:01;;;;;;;4.45;1.80;;;;;;;15.46;100.00;99399.72;4929908;28;20083;-67
2021/10/03 01:16:29;;;;;;;6.05;2.75;;;;;;;15.37;100.00;99403.09;4928524;28;20308;-67
2021/10/03 01:18:57;;;;;;;6.60;2.50;;;;;;;15.24;100.00;99404.03;4928206;28;20063;-67
2021/10/03 01:21:26;;;;;;;6.82;2.00;;;;;;;15.17;100.00;99407.28;4926969;28;20051;-67
2021/10/03 01:23:55;;;;;;;8.48;2.30;;;;;;;15.05;100.00;99417.09;4928874;28;20065;-67
2021/10/03 01:26:22;;;;;;;8.13;2.00;;;;;;;14.92;100.00;99425.19;4927104;28;20098;-67
2021/10/03 01:28:53;;;;;;;5.40;1.92;;;;;;;14.79;100.00;99417.16;4932157;28;20048;-69
2021/10/03 01:31:21;;;;;;;4.13;1.50;;;;;;;14.57;100.00;99434.78;4931736;28;20047;-70
2021/10/03 01:33:49;;;;;;;2.50;1.15;;;;;;;14.35;100.00;99429.19;4931979;28;20051;-70
2021/10/03 01:36:17;;;;;;;5.88;1.00;;;;;;;14.23;100.00;99446.16;4931666;28;20170;-69
2021/10/03 01:38:46;;;;;;;1.70;0.80;;;;;;;14.04;100.00;99452.78;4929199;28;20051;-69
2021/10/03 01:41:15;;;;;;;2.83;1.00;;;;;;;13.90;100.00;99455.56;4933925;28;20050;-70
2021/10/03 01:43:43;;;;;;;3.78;1.13;;;;;;;13.79;100.00;99448.22;4930764;28;20051;-66
2021/10/03 01:46:12;;;;;;;3.92;0.90;;;;;;;13.70;100.00;99459.56;4930999;28;20094;-67
2021/10/03 01:48:46;;;;;;;4.50;1.13;;;;;;;13.63;100.00;99449.25;4933592;28;20163;-67
2021/10/03 01:51:17;;;;;;;7.18;1.58;;;;;;;13.62;100.00;99447.56;4931467;28;20859;-67
2021/10/03 01:53:50;;;;;;;3.97;1.30;;;;;;;13.60;100.00;99453.97;4928443;28;20051;-66
2021/10/03 01:56:19;;;;;;;7.10;1.70;;;;;;;13.57;100.00;99444.31;4932346;28;20134;-67
2021/10/03 01:58:52;;;;;;;9.18;1.90;;;;;;;13.56;100.00;99441.75;4930911;28;20169;-67
2021/10/03 02:01:24;;;;;;;7.10;2.20;;;;;;;13.55;100.00;99446.25;4931841;28;20130;-67
2021/10/03 02:03:57;;;;;;;10.63;2.20;;;;;;;13.51;100.00;99435.84;4930009;28;20350;-67
2021/10/03 02:06:25;;;;;;;9.77;2.10;;;;;;;13.54;100.00;99451.72;4934053;28;20107;-67
2021/10/03 02:08:57;;;;;;;7.32;2.45;;;;;;;13.56;100.00;99449.78;4930435;28;20083;-67
2021/10/03 02:11:27;;;;;;;5.55;1.90;;;;;;;13.55;100.00;99450.72;4929162;28;20051;-67
2021/10/03 02:13:55;;;;;;;7.32;1.70;;;;;;;13.51;100.00;99450.06;4931370;28;20674;-67
2021/10/03 02:16:23;;;;;;;10.93;2.30;;;;;;;13.51;100.00;99449.22;4933524;28;20811;-67
2021/10/03 02:18:51;;;;;;;9.27;2.20;;;;;;;13.50;100.00;99447.50;4932938;28;20170;-67
2021/10/03 02:21:19;;;;;;;9.48;2.15;;;;;;;13.53;100.00;99437.44;4930023;28;20058;-67
2021/10/03 02:23:46;;;;;;;6.97;1.90;;;;;;;13.53;100.00;99418.66;4928855;28;20196;-69
2021/10/03 02:26:16;;;;;;;9.65;2.10;;;;;;;13.56;100.00;99429.19;4931920;28;20067;-68
2021/10/03 02:28:43;;;;;;;8.82;2.67;;;;;;;13.55;100.00;99426.59;4930139;28;20498;-67
2021/10/03 02:31:12;;;;;;;8.93;2.63;;;;;;;13.54;100.00;99430.28;4931919;28;20154;-67
2021/10/03 02:33:42;;;;;;;10.65;2.50;;;;;;;13.56;100.00;99442.59;4929338;28;20047;-69
2021/10/03 02:36:12;;;;;;;6.88;2.28;;;;;;;13.57;100.00;99440.75;4930494;28;20051;-71
2021/10/03 02:38:40;;;;;;;9.40;2.30;;;;;;;13.58;100.00;99446.03;4929279;28;20055;-67
2021/10/03 02:41:09;;;;;;;13.27;2.65;;;;;;;13.63;100.00;99445.72;4929782;28;20130;-70
2021/10/03 02:43:44;;;;;;;8.00;2.30;;;;;;;13.69;100.00;99447.13;4932210;28;20051;-71
2021/10/03 02:46:16;;;;;;;7.88;2.30;;;;;;;13.67;100.00;99455.25;4927391;28;20055;-70
2021/10/03 02:48:49;;;;;;;9.73;2.42;;;;;;;13.69;100.00;99461.41;4933564;28;20517;-69
2021/10/03 02:51:18;;;;;;;7.10;2.28;;;;;;;13.72;100.00;99460.31;4927702;28;20054;-68
2021/10/03 02:53:47;;;;;;;10.50;3.28;;;;;;;13.70;100.00;99471.16;4928153;28;20082;-68
2021/10/03 02:56:16;;;;;;;8.77;2.17;;;;;;;13.71;100.00;99466.66;4926818;28;20589;-68
2021/10/03 02:58:45;;;;;;;6.75;2.08;;;;;;;13.66;100.00;99474.16;4933996;28;20062;-68
2021/10/03 03:01:13;;;;;;;9.68;2.10;;;;;;;13.63;100.00;99469.84;4925868;28;20065;-68
2021/10/03 03:03:42;;;;;;;7.95;2.45;;;;;;;13.58;100.00;99467.47;4928922;28;20062;-69
2021/10/03 03:06:12;;;;;;;8.07;2.50;;;;;;;13.53;100.00;99460.69;4928112;28;20055;-69
2021/10/03 03:08:40;;;;;;;10.07;2.20;;;;;;;13.52;100.00;99453.59;4929683;28;20057;-67
2021/10/03 03:11:08;;;;;;;8.73;2.15;;;;;;;13.48;100.00;99450.28;4927452;28;20081;-67
2021/10/03 03:13:36;;;;;;;10.25;2.42;;;;;;;13.46;100.00;99452.19;4928975;28;20178;-67
2021/10/03 03:16:07;;;;;;;4.95;2.10;;;;;;;13.44;100.00;99452.31;4929580;28;20059;-67
2021/10/03 03:18:34;;;;;;;8.43;2.60;;;;;;;13.42;100.00;99440.81;4927841;28;20084;-67
2021/10/03 03:21:02;;;;;;;7.32;2.33;;;;;;;13.42;100.00;99448.03;4927937;28;20047;-67
2021/10/03 03:23:30;;;;;;;11.60;2.40;;;;;;;13.41;100.00;99455.19;4927718;28;20126;-67
2021/10/03 03:25:58;;;;;;;8.85;2.40;;;;;;;13.41;100.00;99451.66;4931488;28;20357;-67
2021/10/03 03:28:26;;;;;;;11.00;3.00;;;;;;;13.39;100.00;99458.94;4931913;28;20071;-67
2021/10/03 03:30:53;;;;;;;5.63;2.90;;;;;;;13.38;100.00;99479.50;4930110;28;20053;-68
2021/10/03 03:33:23;;;;;;;11.07;2.42;;;;;;;13.38;100.00;99487.56;4928786;28;20503;-68
2021/10/03 03:35:50;;;;;;;7.22;2.10;;;;;;;13.19;100.00;99482.47;4927328;28;20170;-67
2021/10/03 03:38:18;;;;;;;10.18;2.10;;;;;;;13.07;100.00;99481.44;4927292;28;20186;-68
2021/10/03 03:40:46;;;;;;;9.20;2.00;;;;;;;12.95;100.00;99476.03;4926878;28;20047;-67
2021/10/03 03:43:14;;;;;;;10.52;1.98;;;;;;;12.88;100.00;99472.88;4926939;28;20130;-67
2021/10/03 03:45:45;;;;;;;8.13;1.83;;;;;;;12.78;100.00;99467.22;4931486;28;20051;-67
2021/10/03 03:48:13;;;;;;;12.10;2.13;;;;;;;12.67;100.00;99451.84;4930042;28;20451;-67
2021/10/03 03:50:43;;;;;;;6.72;1.65;;;;;;;12.63;100.00;99439.63;4930396;28;20141;-72
2021/10/03 03:53:11;;;;;;;7.15;2.00;;;;;;;12.64;100.00;99448.50;4922910;28;20507;-70
2021/10/03 03:55:39;;;;;;;9.73;2.22;;;;;;;12.59;100.00;99437.25;4928001;28;20051;-71
2021/10/03 03:58:07;;;;;;;9.00;2.20;;;;;;;12.55;100.00;99433.00;4930034;28;20059;-71
2021/10/03 04:00:35;;;;;;;13.25;2.15;;;;;;;12.57;100.00;99439.16;4927499;28;20110;-70
2021/10/03 04:03:03;;;;;;;12.68;2.05;;;;;;;12.59;100.00;99451.47;4928534;28;20094;-67
2021/10/03 04:05:31;;;;;;;12.73;1.98;;;;;;;12.56;100.00;99451.66;4926927;28;20528;-67
2021/10/03 04:08:00;;;;;;;6.90;1.80;;;;;;;12.49;100.00;99447.66;4928307;28;20278;-67
2021/10/03 04:10:28;;;;;;;9.88;2.10;;;;;;;12.46;100.00;99456.75;4925342;28;20239;-67
2021/10/03 04:12:55;;;;;;;11.45;3.00;;;;;;;12.39;100.00;99463.41;4926627;28;20089;-67
2021/10/03 04:15:23;;;;;;;4.15;1.13;;;;;;;12.35;100.00;99461.03;4926519;28;20543;-68
2021/10/03 04:17:51;;;;;;;9.10;1.83;;;;;;;12.25;100.00;99474.09;4928226;28;20668;-67
2021/10/03 04:20:19;;;;;;;9.18;2.08;;;;;;;12.18;100.00;99478.94;4927572;28;20131;-72
2021/10/03 04:22:46;;;;;;;8.55;1.85;;;;;;;12.17;100.00;99474.53;4929718;28;20374;-71
2021/10/03 04:25:15;;;;;;;7.80;2.30;;;;;;;12.17;100.00;99474.53;4926202;28;20050;-67
2021/10/03 04:27:44;;;;;;;5.72;1.50;;;;;;;12.15;100.00;99479.13;4927915;28;20094;-67
2021/10/03 04:30:12;;;;;;;5.90;1.60;;;;;;;12.13;100.00;99489.06;4926905;28;20050;-67
2021/10/03 04:32:40;;;;;;;5.22;1.40;;;;;;;12.09;100.00;99498.22;4926839;28;20663;-67
2021/10/03 04:35:09;;;;;;;10.75;2.15;;;;;;;12.01;100.00;99493.31;4927412;28;20051;-67
2021/10/03 04:37:37;;;;;;;8.10;1.70;;;;;;;11.95;100.00;99493.69;4928641;28;20055;-68
2021/10/03 04:40:07;;;;;;;9.60;1.60;;;;;;;11.99;100.00;99491.72;4927358;28;20047;-67
2021/10/03 04:42:40;;;;;;;8.82;1.67;;;;;;;11.89;100.00;99500.22;4927808;28;20043;-69
2021/10/03 04:45:09;;;;;;;7.43;1.55;;;;;;;11.94;100.00;99510.69;4930272;28;20055;-68
2021/10/03 04:47:38;;;;;;;3.60;1.48;;;;;;;11.93;100.00;99499.09;4926039;28;20328;-69
2021/10/03 04:50:06;;;;;;;4.55;1.50;;;;;;;11.91;100.00;99487.66;4930059;28;20134;-68
2021/10/03 04:52:34;;;;;;;8.02;1.70;;;;;;;11.92;100.00;99488.53;4923759;28;20067;-68
2021/10/03 04:55:02;;;;;;;6.80;2.10;;;;;;;11.87;100.00;99498.59;4927975;28;20095;-68
2021/10/03 04:57:30;;;;;;;6.32;2.28;;;;;;;11.83;100.00;99513.06;4929359;28;20319;-68
2021/10/03 04:59:59;;;;;;;8.73;1.83;;;;;;;11.88;100.00;99503.84;4927649;28;20047;-68
2021/10/03 05:02:27;;;;;;;7.22;1.80;;;;;;;11.88;100.00;99505.66;4930914;28;20537;-72
2021/10/03 05:04:54;;;;;;;10.07;2.65;;;;;;;11.89;100.00;99510.06;4927852;28;20078;-71
2021/10/03 05:07:22;;;;;;;5.10;1.70;;;;;;;11.84;100.00;99515.66;4933915;28;20074;-72
2021/10/03 05:09:50;;;;;;;7.53;2.53;;;;;;;11.86;100.00;99518.25;4928767;28;20157;-71
2021/10/03 05:12:19;;;;;;;7.97;2.10;;;;;;;11.86;100.00;99518.25;4928478;28;20122;-72
2021/10/03 05:14:48;;;;;;;14.88;2.45;;;;;;;11.87;100.00;99507.47;4932010;28;20071;-71
2021/10/03 05:17:17;;;;;;;8.45;2.30;;;;;;;11.87;100.00;99511.97;4932631;28;20055;-72
2021/10/03 05:19:45;;;;;;;5.55;2.45;;;;;;;11.86;100.00;99508.41;4931946;28;20503;-68
2021/10/03 05:22:13;;;;;;;8.25;3.05;;;;;;;11.87;100.00;99512.81;4930387;28;20059;-68
2021/10/03 05:24:40;;;;;;;10.20;2.83;;;;;;;11.87;100.00;99511.97;4931615;28;20051;-69
2021/10/03 05:27:33;;;;;;;13.77;2.70;;;;;;;11.89;100.00;99515.41;4931566;28;20054;-69
2021/10/03 05:30:00;;;;;;;10.80;2.30;;;;;;;11.89;100.00;99520.75;4934690;28;20094;-69
2021/10/03 05:32:30;;;;;;;10.05;2.25;;;;;;;11.90;100.00;99528.69;4929428;28;20055;-67
2021/10/03 05:34:57;;;;;;;9.68;2.65;;;;;;;11.91;100.00;99524.22;4932800;28;20231;-69
2021/10/03 05:37:25;;;;;;;8.13;2.22;;;;;;;11.92;100.00;99520.63;4931806;28;20250;-69
2021/10/03 05:39:53;;;;;;;7.35;2.55;;;;;;;11.92;100.00;99521.47;4930714;28;20632;-69
2021/10/03 05:42:21;;;;;;;10.82;2.65;;;;;;;11.93;100.00;99525.84;4931900;28;20495;-66
2021/10/03 05:44:49;;;;;;;11.45;2.53;;;;;;;11.96;100.00;99525.66;4928316;28;20069;-69
2021/10/03 05:47:17;;;;;;;10.70;2.65;;;;;;;11.95;100.00;99518.63;4931195;28;20170;-68
2021/10/03 05:49:49;;;;;;;8.02;3.70;;;;;;;11.94;100.00;99521.38;4933690;28;20878;-68
2021/10/03 05:52:16;;;;;;;9.93;2.78;;;;;;;11.96;100.00;99523.00;4928213;28;20101;-69
2021/10/03 05:54:44;;;;;;;8.48;3.00;;;;;;;11.95;100.00;99540.00;4929745;28;20276;-68
2021/10/03 05:57:12;;;;;;;5.13;2.47;;;;;;;11.93;100.00;99528.50;4928593;28;20087;-72
2021/10/03 05:59:40;;;;;;;8.90;2.90;;;;;;;11.91;100.00;99526.91;4932026;28;20141;-72
2021/10/03 06:02:08;;;;;;;8.52;2.92;;;;;;;11.88;100.00;99533.22;4930685;28;20816;-72
2021/10/03 06:04:36;;;;;;;13.32;2.65;;;;;;;11.90;100.00;99543.84;4930726;28;20053;-73
2021/10/03 06:07:06;;;;;;;11.23;2.85;;;;;;;11.86;100.00;99553.84;4931732;28;20175;-72
2021/10/03 06:09:34;;;;;;;10.75;2.72;;;;;;;11.83;100.00;99561.19;4928720;28;20048;-72
2021/10/03 06:12:01;;;;;;;4.55;2.38;;;;;;;11.87;100.00;99570.78;4928464;28;20965;-72
2021/10/03 06:14:29;;;;;;;8.07;2.92;;;;;;;11.81;100.00;99566.63;4929693;28;20538;-71
2021/10/03 06:16:57;;;;;;;8.32;2.50;;;;;;;11.80;100.00;99574.72;4931885;28;20675;-72
2021/10/03 06:19:25;;;;;;;9.35;2.97;;;;;;;11.79;100.00;99568.53;4929182;28;20055;-72
2021/10/03 06:21:54;;;;;;;11.30;2.85;;;;;;;11.78;100.00;99570.34;4929167;28;20522;-72
2021/10/03 06:24:23;;;;;;;10.50;3.03;;;;;;;11.73;100.00;99587.56;4931873;28;20051;-72
2021/10/03 06:27:16;;;;;;;6.45;2.60;;;;;;;11.72;100.00;99583.19;4929373;28;20117;-68
2021/10/03 06:29:44;;;;;;;10.38;2.78;;;;;;;11.72;100.00;99586.72;4932747;28;20051;-68
2021/10/03 06:32:12;;;;;;;13.18;3.10;;;;;;;11.77;100.00;99589.13;4927258;28;20551;-68
2021/10/03 06:34:40;;;;;;;7.80;2.50;;;;;;;11.71;100.00;99601.03;4930864;28;20138;-68
2021/10/03 06:37:08;;;;;;;7.25;2.15;;;;;;;11.76;100.00;99596.31;4929974;28;20058;-68
2021/10/03 06:39:38;;;;;;;11.63;3.25;;;;;;;11.74;100.00;99600.00;4929779;28;20477;-71
2021/10/03 06:42:06;;;;;;;5.15;2.17;;;;;;;11.76;100.00;99600.75;4925526;28;20081;-72
2021/10/03 06:44:35;;;;;;;5.97;2.20;;;;;;;11.75;100.00;99601.72;4924337;28;20036;-71
2021/10/03 06:47:05;;;;;;;5.25;1.98;;;;;;;11.75;100.00;99599.06;4932310;28;20058;-67
2021/10/03 06:49:34;;;;;;;8.52;2.22;;;;;;;11.74;100.00;99597.31;4926957;28;20059;-67
2021/10/03 06:52:02;;;;;;;7.20;2.78;;;;;;;11.74;100.00;99590.16;4932259;28;20063;-67
2021/10/03 06:54:29;;;;;;;7.90;2.38;;;;;;;11.76;100.00;99595.41;4924756;28;20540;-67
2021/10/03 06:56:58;;;;;;;8.18;2.25;;;;;;;11.73;100.00;99600.94;4931178;28;20142;-67
2021/10/03 06:59:26;;;;;;;5.10;2.10;;;;;;;11.72;100.00;99609.91;4928456;28;20325;-67
2021/10/03 07:01:54;;;;;;;5.90;2.40;;;;;;;11.73;100.00;99608.94;4931171;28;20344;-68
2021/10/03 07:04:22;;;;;;;7.63;2.88;;;;;;;11.73;100.00;99606.28;4929463;28;20517;-67
2021/10/03 07:06:50;;;;;;;8.15;2.17;;;;;;;11.74;100.00;99606.19;4929332;28;20043;-67
2021/10/03 07:09:18;;;;;;;4.93;2.08;;;;;;;11.69;100.00;99612.75;4929207;28;21186;-67
2021/10/03 07:11:45;;;;;;;6.72;2.17;;;;;;;11.73;100.00;99620.50;4923400;28;20440;-67
2021/10/03 07:14:15;;;;;;;7.18;2.40;;;;;;;11.75;100.00;99617.75;4930842;28;20075;-67
2021/10/03 07:16:43;;;;;;;7.18;2.80;;;;;;;11.77;100.00;99624.72;4930794;28;20051;-67
2021/10/03 07:19:11;;;;;;;6.22;2.20;;;;;;;11.76;100.00;99620.34;4935386;28;20142;-67
2021/10/03 07:21:39;;;;;;;7.07;2.35;;;;;;;11.78;100.00;99617.56;4926003;28;20058;-67
2021/10/03 07:24:07;;;;;;;10.15;2.40;;;;;;;11.79;100.00;99621.97;4931612;28;20171;-67
2021/10/03 07:26:35;;;;;;;7.00;2.45;;;;;;;11.82;100.00;99619.13;4928680;28;20131;-69
2021/10/03 07:29:04;;;;;;;5.35;2.25;;;;;;;11.86;100.00;99619.81;4932449;28;20066;-70
2021/10/03 07:31:34;;;;;;;6.50;2.85;;;;;;;11.87;100.00;99621.56;4927677;28;20729;-72
2021/10/03 07:34:02;;;;;;;7.97;3.42;;;;;;;11.92;100.00;99630.19;4930418;28;20066;-72
2021/10/03 07:36:31;;;;;;;6.80;3.25;;;;;;;11.92;100.00;99625.72;4929997;28;20069;-72
2021/10/03 07:38:59;;;;;;;10.20;4.88;;;;;;;11.91;100.00;99617.78;4928698;28;20220;-72
2021/10/03 07:41:26;;;;;;;11.30;4.75;;;;;;;11.89;100.00;99623.16;4932358;28;20146;-72
2021/10/03 07:43:54;;;;;;;11.43;4.18;;;;;;;11.94;100.00;99625.63;4925796;28;20058;-72
2021/10/03 07:46:22;;;;;;;9.10;4.65;;;;;;;11.96;100.00;99637.09;4929168;28;20060;-71
2021/10/03 07:48:52;;;;;;;11.30;4.57;;;;;;;11.94;100.00;99642.50;4928029;28;20491;-71
2021/10/03 07:51:20;;;;;;;9.38;3.80;;;;;;;11.95;100.00;99643.38;4931324;28;20055;-71
2021/10/03 07:53:48;;;;;;;10.07;4.18;;;;;;;12.01;100.00;99643.03;4924761;28;20133;-72
2021/10/03 07:56:16;;;;;;;9.05;4.13;;;;;;;12.05;100.00;99644.56;4922178;28;20047;-72
2021/10/03 07:58:44;;;;;;;9.13;3.70;;;;;;;12.03;100.00;99654.50;4928996;28;20059;-72
2021/10/03 08:01:12;;;;;;;10.75;3.92;;;;;;;12.07;100.00;99656.06;4926621;28;20054;-69
2021/10/03 08:03:40;;;;;;;5.72;2.65;;;;;;;12.12;100.00;99651.31;4929017;28;20055;-69
2021/10/03 08:06:11;;;;;;;8.15;2.50;;;;;;;12.09;100.00;99645.28;4927937;28;20062;-68
2021/10/03 08:08:39;;;;;;;8.88;2.88;;;;;;;12.14;100.00;99645.88;4927902;28;20476;-69
2021/10/03 08:11:07;;;;;;;6.05;2.95;;;;;;;12.20;100.00;99645.50;4925957;28;20043;-68
2021/10/03 08:13:59;;;;;;;6.95;2.80;;;;;;;12.21;100.00;99649.91;4924666;28;20177;-68
2021/10/03 08:16:27;;;;;;;8.40;3.22;;;;;;;12.15;100.00;99640.41;4927303;28;20050;-69
2021/10/03 08:18:57;;;;;;;6.45;2.80;;;;;;;12.18;100.00;99639.41;4927392;28;20051;-67
2021/10/03 08:21:28;;;;;;;7.43;2.80;;;;;;;12.15;100.00;99648.44;4931338;28;20055;-67
2021/10/03 08:23:56;;;;;;;7.20;3.58;;;;;;;12.20;100.00;99660.69;4932541;28;20125;-68
2021/10/03 08:26:24;;;;;;;9.20;2.67;;;;;;;12.21;100.00;99660.63;4926018;28;20059;-68
2021/10/03 08:28:52;;;;;;;9.52;2.65;;;;;;;12.20;100.00;99664.22;4929138;28;20050;-68
2021/10/03 08:31:20;;;;;;;6.95;2.70;;;;;;;12.24;100.00;99667.59;4928846;28;20520;-67
2021/10/03 08:33:48;;;;;;;7.75;2.55;;;;;;;12.15;100.00;99666.31;4930158;28;20298;-68
2021/10/03 08:36:15;;;;;;;9.30;3.95;;;;;;;12.11;100.00;99675.47;4925742;28;20051;-67
2021/10/03 08:38:45;;;;;;;9.95;3.80;;;;;;;12.12;100.00;99672.72;4924562;28;20058;-67
2021/10/03 08:41:14;;;;;;;7.97;2.28;;;;;;;12.12;100.00;99682.53;4926515;28;20059;-67
2021/10/03 08:43:41;;;;;;;7.72;2.85;;;;;;;12.15;100.00;99683.19;4927993;28;20122;-67
2021/10/03 08:46:16;;;;;;;7.50;3.30;;;;;;;12.11;100.00;99678.13;4922825;28;20077;-67
2021/10/03 08:48:45;;;;;;;6.22;3.17;;;;;;;12.15;100.00;99682.34;4927985;28;20055;-68
2021/10/03 08:51:14;;;;;;;7.90;2.90;;;;;;;12.15;100.00;99685.03;4926573;28;20321;-67
2021/10/03 08:53:41;;;;;;;5.22;2.15;;;;;;;12.09;100.00;99672.03;4923572;28;20680;-67
2021/10/03 08:56:36;;;;;;;5.18;2.22;;;;;;;12.07;100.00;99672.09;4930215;28;20758;-67
2021/10/03 08:59:04;;;;;;;6.35;2.30;;;;;;;12.10;100.00;99674.59;4926912;28;20067;-67
2021/10/03 09:01:49;;;;;;;8.50;2.72;;;;;;;12.08;100.00;99684.50;4925661;28;20465;-67
2021/10/03 09:04:28;;;;;;;5.32;2.00;;;;;;;12.05;100.00;99698.03;4925660;28;21277;-68
2021/10/03 09:07:16;;;;;;;7.38;2.63;;;;;;;12.11;100.00;99696.84;4926461;28;20592;-68
2021/10/03 09:10:03;;;;;;;4.82;1.85;;;;;;;12.00;100.00;99699.25;4924209;28;20051;-67
2021/10/03 09:12:34;;;;;;;8.02;2.20;;;;;;;12.02;100.00;99705.38;4922151;28;20063;-67
2021/10/03 09:15:05;;;;;;;9.40;2.55;;;;;;;12.06;100.00;99697.09;4927017;28;20133;-67
2021/10/03 09:17:58;;;;;;;7.78;2.60;;;;;;;12.16;100.00;99700.13;4928861;28;20608;-68
2021/10/03 09:20:27;;;;;;;5.75;2.17;;;;;;;12.11;100.00;99704.88;4926113;28;21288;-68
2021/10/03 09:23:03;;;;;;;4.80;2.33;;;;;;;12.21;100.00;99700.72;4925564;28;20098;-67
2021/10/03 09:25:43;;;;;;;3.30;1.85;;;;;;;12.24;100.00;99700.56;4929170;28;20051;-67
2021/10/03 09:28:16;;;;;;;6.25;2.25;;;;;;;12.21;100.00;99700.72;4923383;28;20572;-67
2021/10/03 09:30:59;;;;;;;6.18;2.20;;;;;;;12.25;100.00;99690.72;4931090;28;20325;-67
2021/10/03 09:33:45;;;;;;;3.50;1.70;;;;;;;12.27;100.00;99695.00;4925115;28;20051;-67
2021/10/03 09:36:16;;;;;;;3.92;1.95;;;;;;;12.23;100.00;99695.28;4929191;28;20051;-67
2021/10/03 09:38:49;;;;;;;4.05;2.20;;;;;;;12.20;100.00;99715.03;4924481;28;20055;-67
2021/10/03 09:41:20;;;;;;;4.53;2.30;;;;;;;12.22;100.00;99715.81;4925408;28;20063;-67
2021/10/03 09:43:52;;;;;;;8.52;2.58;;;;;;;12.37;100.00;99713.22;4930370;28;20398;-67
2021/10/03 09:46:40;;;;;;;5.25;2.00;;;;;;;12.36;100.00;99709.69;4926592;28;20051;-72
2021/10/03 09:49:13;;;;;;;7.00;2.83;;;;;;;12.40;100.00;99707.72;4929005;28;20055;-72
2021/10/03 09:51:42;;;;;;;7.00;2.90;;;;;;;12.44;100.00;99719.94;4928168;28;20051;-67
2021/10/03 09:54:11;;;;;;;5.45;1.98;;;;;;;12.43;100.00;99728.91;4922498;28;20048;-67
2021/10/03 09:56:39;;;;;;;4.97;2.38;;;;;;;12.45;100.00;99730.56;4933627;28;20150;-67
2021/10/03 09:59:09;;;;;;;5.13;1.77;;;;;;;12.47;100.00;99728.66;4930345;28;20093;-67
2021/10/03 10:01:43;;;;;;;4.03;2.00;;;;;;;12.58;100.00;99724.50;4930092;28;20147;-68
2021/10/03 10:04:13;;;;;;;5.68;2.05;;;;;;;12.64;100.00;99726.81;4930289;28;20300;-68
2021/10/03 10:06:43;;;;;;;4.85;2.15;;;;;;;12.64;100.00;99721.47;4932951;28;20057;-67
2021/10/03 10:09:14;;;;;;;4.50;2.08;;;;;;;12.65;100.00;99725.84;4928517;28;20147;-67
2021/10/03 10:12:12;;;;;;;5.38;2.55;;;;;;;12.72;100.00;99732.59;4924747;28;20062;-67
2021/10/03 10:14:45;;;;;;;4.25;1.95;;;;;;;12.58;100.00;99733.41;4927716;28;20059;-67
2021/10/03 10:17:30;;;;;;;6.38;2.40;;;;;;;12.66;100.00;99744.50;4929523;28;20177;-67
2021/10/03 10:20:00;;;;;;;7.88;2.40;;;;;;;12.70;100.00;99743.38;4934014;28;20044;-67
2021/10/03 10:22:39;;;;;;;3.47;1.92;;;;;;;12.60;100.00;99733.28;4930052;28;20091;-67
2021/10/03 10:25:17;;;;;;;3.33;1.70;;;;;;;12.41;100.00;99741.50;4936032;28;20075;-71
2021/10/03 10:28:04;;;;;;;2.45;1.48;;;;;;;12.43;100.00;99756.53;4930132;28;20055;-72
2021/10/03 10:31:10;;;;;;;1.83;1.48;;;;;;;12.32;100.00;99762.47;4931407;28;20066;-72
2021/10/03 10:34:05;;;;;;;3.40;1.92;;;;;;;12.43;100.00;99761.91;4928597;28;20226;-73
2021/10/03 10:36:36;;;;;;;4.57;2.13;;;;;;;12.47;100.00;99765.25;4932934;28;20059;-72
2021/10/03 10:39:18;;;;;;;4.38;1.58;;;;;;;12.61;100.00;99776.03;4927488;28;20070;-71
2021/10/03 10:41:50;;;;;;;3.92;2.08;;;;;;;12.67;100.00;99786.38;4930989;28;20051;-72
2021/10/03 10:44:43;;;;;;;4.85;1.73;;;;;;;12.69;100.00;99768.41;4934834;28;20227;-72
2021/10/03 10:47:18;;;;;;;4.40;1.90;;;;;;;12.70;100.00;99804.06;4928021;28;20058;-73
2021/10/03 10:50:14;;;;;;;5.75;2.28;;;;;;;12.63;100.00;99816.06;4933724;28;20121;-71
2021/10/03 10:52:42;;;;;;;6.38;2.33;;;;;;;12.71;100.00;99820.03;4926074;28;20477;-74
2021/10/03 10:55:31;;;;;;;4.95;2.28;;;;;;;12.65;100.00;99823.09;4929986;28;20106;-71
2021/10/03 10:58:20;;;;;;;4.45;1.70;;;;;;;12.58;100.00;99824.38;4929181;28;20071;-71
2021/10/03 11:01:11;;;;;;;3.10;1.88;;;;;;;12.37;100.00;99836.28;4928661;28;20178;-71
2021/10/03 11:03:57;;;;;;;2.25;1.40;;;;;;;12.32;100.00;99863.28;4928574;28;20063;-72
2021/10/03 11:06:56;;;;;;;5.03;1.90;;;;;;;12.33;100.00;99868.53;4931500;28;20392;-72
2021/10/03 11:09:25;;;;;;;3.13;1.50;;;;;;;12.21;100.00;99857.63;4930252;28;20533;-72
2021/10/03 11:12:11;;;;;;;3.85;2.13;;;;;;;12.29;100.00;99842.91;4927953;28;20132;-72
2021/10/03 11:14:42;;;;;;;5.22;1.80;;;;;;;12.19;100.00;99844.38;4930581;28;20444;-72
2021/10/03 11:17:14;;;;;;;4.82;2.25;;;;;;;12.32;100.00;99852.56;4926310;28;20129;-70
2021/10/03 11:19:49;;;;;;;5.55;1.75;;;;;;;12.33;100.00;99862.34;4929959;28;20055;-72
2021/10/03 11:22:23;;;;;;;4.03;1.85;;;;;;;12.25;100.00;99865.41;4928448;28;20051;-68
2021/10/03 11:24:53;;;;;;;15.82;8.32;;;;;;;12.14;100.00;99859.81;4930842;28;20530;-72
2021/10/03 11:27:22;;;;;;;6.53;2.47;;;;;;;12.27;100.00;99862.66;4931058;28;20055;-68
2021/10/03 11:29:52;;;;;;;5.35;2.58;;;;;;;12.30;100.00;99857.16;4927719;28;20185;-67
2021/10/03 11:32:22;;;;;;;11.57;7.60;;;;;;;12.31;100.00;99862.41;4928682;28;20059;-68
2021/10/03 11:34:53;;;;;;;8.32;5.63;;;;;;;12.35;100.00;99883.66;4929894;28;20301;-73
2021/10/03 11:37:25;;;;;;;6.70;3.55;;;;;;;12.43;100.00;99868.91;4931723;28;20106;-72
2021/10/03 11:39:56;;;;;;;9.05;3.67;;;;;;;12.40;100.00;99885.13;4929053;28;20054;-72
2021/10/03 11:42:34;;;;;;;11.13;5.03;;;;;;;12.17;100.00;99893.53;4929202;28;20065;-74